sensor_id;sensor_type;location;lat;lon;timestamp;pressure;altitude;pressure_sealevel;temperature;humidity
35023;BME280;21214;44.912;8.204;2023-03-21T00:00:12;100020.56;;;8.61;100.00
35023;BME280;21214;44.912;8.204;2023-03-21T00:02:37;100024.75;;;8.75;100.00
35023;BME280;21214;44.912;8.204;2023-03-21T00:05:02;100026.81;;;8.72;100.00
35023;BME280;21214;44.912;8.204;2023-03-21T00:07:28;100025.34;;;8.68;100.00
35023;BME280;21214;44.912;8.204;2023-03-21T00:09:53;100030.13;;;8.74;100.00
35023;BME280;21214;44.912;8.204;2023-03-21T00:12:18;100027.63;;;8.72;100.00
35023;BME280;21214;44.912;8.204;2023-03-21T00:14:45;100032.53;;;8.66;100.00
35023;BME280;21214;44.912;8.204;2023-03-21T00:17:10;100026.56;;;8.75;100.00
35023;BME280;21214;44.912;8.204;2023-03-21T00:19:35;100018.66;;;8.63;100.00
35023;BME280;21214;44.912;8.204;2023-03-21T00:22:03;100023.91;;;8.63;100.00
35023;BME280;21214;44.912;8.204;2023-03-21T00:24:28;100023.19;;;8.73;100.00
35023;BME280;21214;44.912;8.204;2023-03-21T00:26:53;100027.41;;;8.75;100.00
35023;BME280;21214;44.912;8.204;2023-03-21T00:29:20;100020.81;;;8.70;100.00
35023;BME280;21214;44.912;8.204;2023-03-21T00:31:45;100024.97;;;8.39;100.00
35023;BME280;21214;44.912;8.204;2023-03-21T00:34:11;100025.22;;;8.01;100.00
35023;BME280;21214;44.912;8.204;2023-03-21T00:36:36;100018.81;;;8.16;100.00
35023;BME280;21214;44.912;8.204;2023-03-21T00:39:05;100016.81;;;7.96;100.00
35023;BME280;21214;44.912;8.204;2023-03-21T00:41:31;100008.22;;;7.82;100.00
35023;BME280;21214;44.912;8.204;2023-03-21T00:43:57;100011.78;;;7.81;100.00
35023;BME280;21214;44.912;8.204;2023-03-21T00:46:22;100008.00;;;7.97;100.00
35023;BME280;21214;44.912;8.204;2023-03-21T00:48:48;100002.72;;;7.86;100.00
35023;BME280;21214;44.912;8.204;2023-03-21T00:51:14;100009.97;;;7.71;100.00
35023;BME280;21214;44.912;8.204;2023-03-21T00:53:45;100000.66;;;7.54;100.00
35023;BME280;21214;44.912;8.204;2023-03-21T00:56:11;99999.03;;;7.53;100.00
35023;BME280;21214;44.912;8.204;2023-03-21T00:58:36;99991.59;;;7.47;100.00
35023;BME280;21214;44.912;8.204;2023-03-21T01:01:01;99992.75;;;7.43;100.00
35023;BME280;21214;44.912;8.204;2023-03-21T01:03:28;99996.03;;;7.58;100.00
35023;BME280;21214;44.912;8.204;2023-03-21T01:05:53;100001.00;;;7.73;100.00
35023;BME280;21214;44.912;8.204;2023-03-21T01:08:30;99995.53;;;7.76;100.00
35023;BME280;21214;44.912;8.204;2023-03-21T01:10:55;99997.91;;;7.79;100.00
35023;BME280;21214;44.912;8.204;2023-03-21T01:13:21;99990.28;;;7.76;100.00
35023;BME280;21214;44.912;8.204;2023-03-21T01:15:48;99990.72;;;7.70;100.00
35023;BME280;21214;44.912;8.204;2023-03-21T01:18:15;99989.09;;;7.80;100.00
35023;BME280;21214;44.912;8.204;2023-03-21T01:20:41;99986.94;;;7.86;100.00
35023;BME280;21214;44.912;8.204;2023-03-21T01:23:07;99982.63;;;7.85;100.00
35023;BME280;21214;44.912;8.204;2023-03-21T01:25:32;99972.97;;;7.85;100.00
35023;BME280;21214;44.912;8.204;2023-03-21T01:27:58;99973.69;;;7.87;100.00
35023;BME280;21214;44.912;8.204;2023-03-21T01:30:23;99974.06;;;7.82;100.00
35023;BME280;21214;44.912;8.204;2023-03-21T01:32:49;99967.78;;;7.72;100.00
35023;BME280;21214;44.912;8.204;2023-03-21T01:35:14;99975.19;;;7.67;100.00
35023;BME280;21214;44.912;8.204;2023-03-21T01:37:39;99978.25;;;7.61;100.00
35023;BME280;21214;44.912;8.204;2023-03-21T01:40:05;99969.47;;;7.73;100.00
35023;BME280;21214;44.912;8.204;2023-03-21T01:42:31;99975.00;;;7.81;100.00
35023;BME280;21214;44.912;8.204;2023-03-21T01:45:01;99970.09;;;7.77;100.00
35023;BME280;21214;44.912;8.204;2023-03-21T01:47:42;99962.69;;;7.71;100.00
35023;BME280;21214;44.912;8.204;2023-03-21T01:50:31;99971.41;;;7.71;100.00
35023;BME280;21214;44.912;8.204;2023-03-21T01:53:01;99961.09;;;7.68;100.00
35023;BME280;21214;44.912;8.204;2023-03-21T01:55:30;99962.78;;;7.69;100.00
35023;BME280;21214;44.912;8.204;2023-03-21T01:58:04;99968.00;;;7.58;100.00
35023;BME280;21214;44.912;8.204;2023-03-21T02:00:34;99966.03;;;7.49;100.00
35023;BME280;21214;44.912;8.204;2023-03-21T02:03:14;99967.97;;;7.47;100.00
35023;BME280;21214;44.912;8.204;2023-03-21T02:08:16;99958.59;;;7.43;100.00
35023;BME280;21214;44.912;8.204;2023-03-21T02:10:42;99950.28;;;7.25;100.00
35023;BME280;21214;44.912;8.204;2023-03-21T02:13:10;99950.09;;;7.05;100.00
35023;BME280;21214;44.912;8.204;2023-03-21T02:15:45;99949.09;;;6.94;100.00
35023;BME280;21214;44.912;8.204;2023-03-21T02:18:23;99954.09;;;6.97;100.00
35023;BME280;21214;44.912;8.204;2023-03-21T02:21:05;99951.41;;;7.10;100.00
35023;BME280;21214;44.912;8.204;2023-03-21T02:29:04;99953.38;;;6.59;100.00
35023;BME280;21214;44.912;8.204;2023-03-21T02:41:47;99948.78;;;6.25;100.00
35023;BME280;21214;44.912;8.204;2023-03-21T02:47:00;99950.34;;;6.40;100.00
35023;BME280;21214;44.912;8.204;2023-03-21T02:49:29;99940.78;;;6.51;100.00
35023;BME280;21214;44.912;8.204;2023-03-21T02:51:58;99934.03;;;6.60;100.00
35023;BME280;21214;44.912;8.204;2023-03-21T02:54:25;99932.16;;;6.62;100.00
35023;BME280;21214;44.912;8.204;2023-03-21T02:56:51;99924.81;;;6.67;100.00
35023;BME280;21214;44.912;8.204;2023-03-21T02:59:18;99918.53;;;6.57;100.00
35023;BME280;21214;44.912;8.204;2023-03-21T03:01:45;99917.28;;;6.63;100.00
35023;BME280;21214;44.912;8.204;2023-03-21T03:04:21;99913.28;;;6.57;100.00
35023;BME280;21214;44.912;8.204;2023-03-21T03:07:04;99912.28;;;6.47;100.00
35023;BME280;21214;44.912;8.204;2023-03-21T03:12:09;99905.28;;;6.71;100.00
35023;BME280;21214;44.912;8.204;2023-03-21T03:19:35;99897.00;;;6.77;100.00
35023;BME280;21214;44.912;8.204;2023-03-21T03:22:06;99906.06;;;6.84;100.00
35023;BME280;21214;44.912;8.204;2023-03-21T03:24:55;99904.72;;;6.79;100.00
35023;BME280;21214;44.912;8.204;2023-03-21T03:27:26;99909.13;;;6.78;100.00
35023;BME280;21214;44.912;8.204;2023-03-21T03:30:00;99905.16;;;6.73;100.00
35023;BME280;21214;44.912;8.204;2023-03-21T03:32:30;99901.47;;;6.88;100.00
35023;BME280;21214;44.912;8.204;2023-03-21T03:34:59;99899.97;;;6.84;100.00
35023;BME280;21214;44.912;8.204;2023-03-21T03:37:30;99907.53;;;6.88;100.00
35023;BME280;21214;44.912;8.204;2023-03-21T03:42:33;99902.91;;;6.92;100.00
35023;BME280;21214;44.912;8.204;2023-03-21T03:45:13;99908.38;;;6.89;100.00
35023;BME280;21214;44.912;8.204;2023-03-21T03:52:35;99898.75;;;6.53;100.00
35023;BME280;21214;44.912;8.204;2023-03-21T03:55:09;99902.44;;;6.25;100.00
35023;BME280;21214;44.912;8.204;2023-03-21T03:57:38;99902.03;;;6.18;100.00
35023;BME280;21214;44.912;8.204;2023-03-21T04:00:04;99891.97;;;6.25;100.00
35023;BME280;21214;44.912;8.204;2023-03-21T04:02:42;99902.84;;;6.32;100.00
35023;BME280;21214;44.912;8.204;2023-03-21T04:05:08;99902.22;;;6.41;100.00
35023;BME280;21214;44.912;8.204;2023-03-21T04:07:33;99907.66;;;6.50;100.00
35023;BME280;21214;44.912;8.204;2023-03-21T04:09:59;99902.00;;;6.44;100.00
35023;BME280;21214;44.912;8.204;2023-03-21T04:12:25;99912.19;;;6.36;100.00
35023;BME280;21214;44.912;8.204;2023-03-21T04:15:07;99907.66;;;6.38;100.00
35023;BME280;21214;44.912;8.204;2023-03-21T04:17:33;99902.34;;;6.27;100.00
35023;BME280;21214;44.912;8.204;2023-03-21T04:19:58;99905.19;;;6.24;100.00
35023;BME280;21214;44.912;8.204;2023-03-21T04:22:24;99902.25;;;6.15;100.00
35023;BME280;21214;44.912;8.204;2023-03-21T04:24:50;99908.94;;;6.20;100.00
35023;BME280;21214;44.912;8.204;2023-03-21T04:27:16;99902.47;;;6.12;100.00
35023;BME280;21214;44.912;8.204;2023-03-21T04:29:51;99898.19;;;6.11;100.00
35023;BME280;21214;44.912;8.204;2023-03-21T04:32:42;99908.84;;;6.08;100.00
35023;BME280;21214;44.912;8.204;2023-03-21T04:35:12;99901.50;;;6.13;100.00
35023;BME280;21214;44.912;8.204;2023-03-21T04:37:37;99901.84;;;6.22;100.00
35023;BME280;21214;44.912;8.204;2023-03-21T04:40:04;99903.41;;;6.11;100.00
35023;BME280;21214;44.912;8.204;2023-03-21T04:42:32;99893.22;;;6.20;100.00
35023;BME280;21214;44.912;8.204;2023-03-21T04:44:58;99892.81;;;6.26;100.00
35023;BME280;21214;44.912;8.204;2023-03-21T04:47:23;99890.94;;;6.15;100.00
35023;BME280;21214;44.912;8.204;2023-03-21T04:49:49;99898.47;;;6.20;100.00
35023;BME280;21214;44.912;8.204;2023-03-21T04:52:14;99904.53;;;6.20;100.00
35023;BME280;21214;44.912;8.204;2023-03-21T04:54:40;99895.56;;;6.11;100.00
35023;BME280;21214;44.912;8.204;2023-03-21T04:57:05;99898.28;;;6.23;100.00
35023;BME280;21214;44.912;8.204;2023-03-21T04:59:32;99899.94;;;6.24;100.00
35023;BME280;21214;44.912;8.204;2023-03-21T05:01:57;99898.88;;;6.26;100.00
35023;BME280;21214;44.912;8.204;2023-03-21T05:04:23;99889.66;;;6.21;100.00
35023;BME280;21214;44.912;8.204;2023-03-21T05:06:48;99906.84;;;6.25;100.00
35023;BME280;21214;44.912;8.204;2023-03-21T05:09:14;99898.28;;;6.23;100.00
35023;BME280;21214;44.912;8.204;2023-03-21T05:11:40;99905.38;;;6.33;100.00
35023;BME280;21214;44.912;8.204;2023-03-21T05:14:07;99893.63;;;6.39;100.00
35023;BME280;21214;44.912;8.204;2023-03-21T05:16:32;99895.31;;;6.40;100.00
35023;BME280;21214;44.912;8.204;2023-03-21T05:18:59;99902.00;;;6.44;100.00
35023;BME280;21214;44.912;8.204;2023-03-21T05:21:33;99907.03;;;6.47;100.00
35023;BME280;21214;44.912;8.204;2023-03-21T05:24:08;99903.78;;;6.31;100.00
35023;BME280;21214;44.912;8.204;2023-03-21T05:26:37;99912.19;;;6.36;100.00
35023;BME280;21214;44.912;8.204;2023-03-21T05:29:11;99901.59;;;6.37;100.00
35023;BME280;21214;44.912;8.204;2023-03-21T05:31:37;99903.69;;;6.32;100.00
35023;BME280;21214;44.912;8.204;2023-03-21T05:34:07;99902.44;;;6.38;100.00
35023;BME280;21214;44.912;8.204;2023-03-21T05:36:34;99901.59;;;6.37;100.00
35023;BME280;21214;44.912;8.204;2023-03-21T05:39:01;99906.84;;;6.25;100.00
35023;BME280;21214;44.912;8.204;2023-03-21T05:41:29;99905.38;;;6.21;100.00
35023;BME280;21214;44.912;8.204;2023-03-21T05:43:56;99909.78;;;6.33;100.00
35023;BME280;21214;44.912;8.204;2023-03-21T05:46:21;99910.84;;;6.30;100.00
35023;BME280;21214;44.912;8.204;2023-03-21T05:48:47;99919.44;;;6.20;100.00
35023;BME280;21214;44.912;8.204;2023-03-21T05:51:15;99913.91;;;6.11;100.00
35023;BME280;21214;44.912;8.204;2023-03-21T05:53:40;99914.75;;;6.12;100.00
35023;BME280;21214;44.912;8.204;2023-03-21T05:56:06;99913.78;;;6.13;100.00
35023;BME280;21214;44.912;8.204;2023-03-21T05:59:04;99910.44;;;6.24;100.00
35023;BME280;21214;44.912;8.204;2023-03-21T06:01:35;99925.72;;;6.30;100.00
35023;BME280;21214;44.912;8.204;2023-03-21T06:04:09;99928.53;;;6.27;100.00
35023;BME280;21214;44.912;8.204;2023-03-21T06:06:35;99920.34;;;6.31;100.00
35023;BME280;21214;44.912;8.204;2023-03-21T06:09:00;99922.38;;;6.28;100.00
35023;BME280;21214;44.912;8.204;2023-03-21T06:11:28;99918.56;;;6.32;100.00
35023;BME280;21214;44.912;8.204;2023-03-21T06:14:19;99920.06;;;6.36;100.00
35023;BME280;21214;44.912;8.204;2023-03-21T06:16:58;99924.22;;;6.38;100.00
35023;BME280;21214;44.912;8.204;2023-03-21T06:19:24;99914.41;;;6.42;100.00
35023;BME280;21214;44.912;8.204;2023-03-21T06:22:06;99922.75;;;6.47;100.00
35023;BME280;21214;44.912;8.204;2023-03-21T06:24:33;99927.38;;;6.43;100.00
35023;BME280;21214;44.912;8.204;2023-03-21T06:26:59;99922.56;;;6.37;100.00
35023;BME280;21214;44.912;8.204;2023-03-21T06:29:31;99929.81;;;6.21;100.00
35023;BME280;21214;44.912;8.204;2023-03-21T06:31:56;99931.41;;;6.24;100.00
35023;BME280;21214;44.912;8.204;2023-03-21T06:34:22;99929.47;;;6.38;100.00
35023;BME280;21214;44.912;8.204;2023-03-21T06:36:47;99927.38;;;6.43;100.00
35023;BME280;21214;44.912;8.204;2023-03-21T06:39:14;99925.69;;;6.42;100.00
35023;BME280;21214;44.912;8.204;2023-03-21T06:41:41;99933.03;;;6.50;100.00
35023;BME280;21214;44.912;8.204;2023-03-21T06:44:07;99930.91;;;6.55;100.00
35023;BME280;21214;44.912;8.204;2023-03-21T06:46:40;99938.16;;;6.64;100.00
35023;BME280;21214;44.912;8.204;2023-03-21T06:49:07;99942.00;;;6.71;100.00
35023;BME280;21214;44.912;8.204;2023-03-21T06:51:33;99940.25;;;6.59;100.00
35023;BME280;21214;44.912;8.204;2023-03-21T06:54:08;99942.72;;;6.73;100.00
35023;BME280;21214;44.912;8.204;2023-03-21T06:56:40;99948.28;;;6.81;100.00
35023;BME280;21214;44.912;8.204;2023-03-21T06:59:08;99945.63;;;6.94;100.00
35023;BME280;21214;44.912;8.204;2023-03-21T07:01:53;99941.03;;;7.09;100.00
35023;BME280;21214;44.912;8.204;2023-03-21T07:04:19;99942.88;;;7.19;100.00
35023;BME280;21214;44.912;8.204;2023-03-21T07:06:44;99943.72;;;7.20;100.00
35023;BME280;21214;44.912;8.204;2023-03-21T07:09:10;99944.00;;;7.28;100.00
35023;BME280;21214;44.912;8.204;2023-03-21T07:11:36;99952.06;;;7.49;100.00
35023;BME280;21214;44.912;8.204;2023-03-21T07:14:03;99943.13;;;7.51;100.00
35023;BME280;21214;44.912;8.204;2023-03-21T07:16:28;99941.97;;;7.66;100.00
35023;BME280;21214;44.912;8.204;2023-03-21T07:18:54;99943.00;;;7.76;100.00
35023;BME280;21214;44.912;8.204;2023-03-21T07:21:19;99936.81;;;7.89;100.00
35023;BME280;21214;44.912;8.204;2023-03-21T07:23:45;99936.56;;;8.03;100.00
35023;BME280;21214;44.912;8.204;2023-03-21T07:26:11;99938.03;;;8.18;100.00
35023;BME280;21214;44.912;8.204;2023-03-21T07:28:37;99928.03;;;8.34;100.00
35023;BME280;21214;44.912;8.204;2023-03-21T07:31:04;99929.25;;;8.41;100.00
35023;BME280;21214;44.912;8.204;2023-03-21T07:33:30;99931.38;;;8.58;100.00
35023;BME280;21214;44.912;8.204;2023-03-21T07:35:58;99933.25;;;8.79;100.00
35023;BME280;21214;44.912;8.204;2023-03-21T07:38:24;99931.78;;;8.97;100.00
35023;BME280;21214;44.912;8.204;2023-03-21T07:40:50;99935.81;;;9.12;100.00
35023;BME280;21214;44.912;8.204;2023-03-21T07:43:17;99934.84;;;9.24;100.00
35023;BME280;21214;44.912;8.204;2023-03-21T07:45:43;99934.34;;;9.30;100.00
35023;BME280;21214;44.912;8.204;2023-03-21T07:48:09;99938.56;;;9.42;100.00
35023;BME280;21214;44.912;8.204;2023-03-21T07:50:37;99938.72;;;9.62;100.00
35023;BME280;21214;44.912;8.204;2023-03-21T07:53:05;99944.25;;;9.79;100.00
35023;BME280;21214;44.912;8.204;2023-03-21T07:55:30;99944.47;;;9.88;100.00
35023;BME280;21214;44.912;8.204;2023-03-21T07:58:01;99945.34;;;9.98;100.00
35023;BME280;21214;44.912;8.204;2023-03-21T08:00:26;99944.97;;;10.02;100.00
35023;BME280;21214;44.912;8.204;2023-03-21T08:02:52;99943.34;;;9.90;100.00
35023;BME280;21214;44.912;8.204;2023-03-21T08:05:25;99948.44;;;9.61;100.00
35023;BME280;21214;44.912;8.204;2023-03-21T08:07:51;99941.94;;;9.86;100.00
35023;BME280;21214;44.912;8.204;2023-03-21T08:10:17;99945.88;;;9.92;100.00
35023;BME280;21214;44.912;8.204;2023-03-21T08:12:42;99943.47;;;10.09;100.00
35023;BME280;21214;44.912;8.204;2023-03-21T08:15:08;99949.16;;;10.25;100.00
35023;BME280;21214;44.912;8.204;2023-03-21T08:17:34;99958.13;;;10.44;100.00
35023;BME280;21214;44.912;8.204;2023-03-21T08:20:03;99949.00;;;10.48;100.00
35023;BME280;21214;44.912;8.204;2023-03-21T08:22:31;99954.00;;;10.51;100.00
35023;BME280;21214;44.912;8.204;2023-03-21T08:24:56;99958.09;;;10.64;100.00
35023;BME280;21214;44.912;8.204;2023-03-21T08:27:22;99960.03;;;10.72;100.00
35023;BME280;21214;44.912;8.204;2023-03-21T08:29:47;99951.03;;;10.75;100.00
35023;BME280;21214;44.912;8.204;2023-03-21T08:32:12;99961.06;;;10.90;100.00
35023;BME280;21214;44.912;8.204;2023-03-21T08:34:37;99960.28;;;10.99;100.00
35023;BME280;21214;44.912;8.204;2023-03-21T08:37:03;99961.41;;;11.06;100.00
35023;BME280;21214;44.912;8.204;2023-03-21T08:39:28;99960.28;;;11.09;100.00
35023;BME280;21214;44.912;8.204;2023-03-21T08:41:53;99954.16;;;11.08;100.00
35023;BME280;21214;44.912;8.204;2023-03-21T08:44:19;99947.13;;;11.19;100.00
35023;BME280;21214;44.912;8.204;2023-03-21T08:46:46;99948.34;;;11.15;100.00
35023;BME280;21214;44.912;8.204;2023-03-21T08:49:11;99953.31;;;10.98;100.00
35023;BME280;21214;44.912;8.204;2023-03-21T08:51:37;99945.22;;;10.90;100.00
35023;BME280;21214;44.912;8.204;2023-03-21T08:54:02;99955.53;;;11.03;100.00
35023;BME280;21214;44.912;8.204;2023-03-21T08:56:27;99947.91;;;11.09;100.00
35023;BME280;21214;44.912;8.204;2023-03-21T08:58:53;99948.34;;;11.15;100.00
35023;BME280;21214;44.912;8.204;2023-03-21T09:01:18;99948.09;;;11.18;100.00
35023;BME280;21214;44.912;8.204;2023-03-21T09:03:44;99950.84;;;11.26;100.00
35023;BME280;21214;44.912;8.204;2023-03-21T09:06:09;99951.72;;;11.36;100.00
35023;BME280;21214;44.912;8.204;2023-03-21T09:08:36;99953.94;;;11.40;100.00
35023;BME280;21214;44.912;8.204;2023-03-21T09:11:02;99951.16;;;11.42;100.00
35023;BME280;21214;44.912;8.204;2023-03-21T09:13:27;99951.69;;;11.55;100.00
35023;BME280;21214;44.912;8.204;2023-03-21T09:15:53;99954.78;;;11.60;100.00
35023;BME280;21214;44.912;8.204;2023-03-21T09:18:19;99955.06;;;11.76;100.00
35023;BME280;21214;44.912;8.204;2023-03-21T09:20:47;99956.59;;;11.88;100.00
35023;BME280;21214;44.912;8.204;2023-03-21T09:23:14;99963.25;;;11.93;100.00
35023;BME280;21214;44.912;8.204;2023-03-21T09:25:40;99951.16;;;12.00;100.00
35023;BME280;21214;44.912;8.204;2023-03-21T09:28:06;99958.91;;;12.11;100.00
35023;BME280;21214;44.912;8.204;2023-03-21T09:30:33;99955.00;;;12.24;100.00
35023;BME280;21214;44.912;8.204;2023-03-21T09:32:59;99958.03;;;12.29;100.00
35023;BME280;21214;44.912;8.204;2023-03-21T09:35:25;99949.66;;;12.34;100.00
35023;BME280;21214;44.912;8.204;2023-03-21T09:37:51;99939.88;;;12.44;100.00
35023;BME280;21214;44.912;8.204;2023-03-21T09:40:19;99940.53;;;12.56;100.00
35023;BME280;21214;44.912;8.204;2023-03-21T09:42:51;99944.13;;;12.64;100.00
35023;BME280;21214;44.912;8.204;2023-03-21T09:47:54;99947.84;;;12.71;100.00
35023;BME280;21214;44.912;8.204;2023-03-21T09:55:16;99945.72;;;13.02;100.00
35023;BME280;21214;44.912;8.204;2023-03-21T09:57:43;99943.06;;;13.12;100.00
35023;BME280;21214;44.912;8.204;2023-03-21T10:00:11;99935.84;;;13.22;100.00
35023;BME280;21214;44.912;8.204;2023-03-21T10:02:49;99936.63;;;13.32;100.00
35023;BME280;21214;44.912;8.204;2023-03-21T10:05:24;99932.09;;;13.42;100.00
35023;BME280;21214;44.912;8.204;2023-03-21T10:10:26;99934.19;;;13.57;100.00
35023;BME280;21214;44.912;8.204;2023-03-21T10:12:53;99924.13;;;13.60;100.00
35023;BME280;21214;44.912;8.204;2023-03-21T10:15:20;99921.00;;;13.65;100.00
35023;BME280;21214;44.912;8.204;2023-03-21T10:17:47;99917.38;;;13.66;100.00
35023;BME280;21214;44.912;8.204;2023-03-21T10:22:41;99913.84;;;13.83;100.00
35023;BME280;21214;44.912;8.204;2023-03-21T10:25:09;99909.59;;;13.90;100.00
35023;BME280;21214;44.912;8.204;2023-03-21T10:27:37;99906.84;;;14.00;100.00
35023;BME280;21214;44.912;8.204;2023-03-21T10:30:03;99904.19;;;14.00;100.00
35023;BME280;21214;44.912;8.204;2023-03-21T10:32:31;99904.41;;;14.06;100.00
35023;BME280;21214;44.912;8.204;2023-03-21T10:34:57;99912.38;;;14.14;100.00
35023;BME280;21214;44.912;8.204;2023-03-21T10:37:23;99909.28;;;14.19;100.00
35023;BME280;21214;44.912;8.204;2023-03-21T10:39:50;99906.47;;;14.20;100.00
35023;BME280;21214;44.912;8.204;2023-03-21T10:42:17;99903.50;;;14.23;100.00
35023;BME280;21214;44.912;8.204;2023-03-21T10:44:45;99890.91;;;14.25;100.00
35023;BME280;21214;44.912;8.204;2023-03-21T10:47:11;99882.97;;;14.33;100.00
35023;BME280;21214;44.912;8.204;2023-03-21T10:49:37;99880.03;;;14.37;100.00
35023;BME280;21214;44.912;8.204;2023-03-21T10:52:06;99876.38;;;14.38;100.00
35023;BME280;21214;44.912;8.204;2023-03-21T10:54:33;99873.78;;;14.46;100.00
35023;BME280;21214;44.912;8.204;2023-03-21T10:57:10;99882.13;;;14.59;100.00
35023;BME280;21214;44.912;8.204;2023-03-21T10:59:42;99871.22;;;14.70;100.00
35023;BME280;21214;44.912;8.204;2023-03-21T11:02:25;99872.41;;;14.84;100.00
35023;BME280;21214;44.912;8.204;2023-03-21T11:04:53;99874.75;;;14.95;100.00
35023;BME280;21214;44.912;8.204;2023-03-21T11:07:19;99874.94;;;15.01;100.00
35023;BME280;21214;44.912;8.204;2023-03-21T11:09:47;99879.75;;;15.06;99.77
35023;BME280;21214;44.912;8.204;2023-03-21T11:12:13;99879.94;;;15.12;99.36
35023;BME280;21214;44.912;8.204;2023-03-21T11:17:22;99880.59;;;15.14;97.85
35023;BME280;21214;44.912;8.204;2023-03-21T11:22:13;99873.97;;;15.27;98.18
35023;BME280;21214;44.912;8.204;2023-03-21T11:24:39;99870.97;;;15.38;97.70
35023;BME280;21214;44.912;8.204;2023-03-21T11:27:06;99863.53;;;15.41;97.07
35023;BME280;21214;44.912;8.204;2023-03-21T11:29:33;99862.38;;;15.52;97.41
35023;BME280;21214;44.912;8.204;2023-03-21T11:32:00;99857.38;;;15.65;96.81
35023;BME280;21214;44.912;8.204;2023-03-21T11:34:31;99858.50;;;15.79;95.17
35023;BME280;21214;44.912;8.204;2023-03-21T11:36:58;99853.03;;;15.88;92.34
35023;BME280;21214;44.912;8.204;2023-03-21T11:39:27;99853.03;;;15.88;87.88
35023;BME280;21214;44.912;8.204;2023-03-21T11:41:54;99851.69;;;16.01;89.33
35023;BME280;21214;44.912;8.204;2023-03-21T11:44:28;99844.78;;;16.14;88.72
35023;BME280;21214;44.912;8.204;2023-03-21T11:46:53;99836.78;;;16.30;88.72
35023;BME280;21214;44.912;8.204;2023-03-21T11:49:19;99840.03;;;16.49;87.99
35023;BME280;21214;44.912;8.204;2023-03-21T11:57:07;99810.00;;;16.63;84.06
35023;BME280;21214;44.912;8.204;2023-03-21T11:59:47;99804.78;;;16.69;83.55
35023;BME280;21214;44.912;8.204;2023-03-21T12:02:40;99798.06;;;16.82;79.60
35023;BME280;21214;44.912;8.204;2023-03-21T12:05:16;99785.59;;;16.97;78.42
35023;BME280;21214;44.912;8.204;2023-03-21T12:07:47;99787.50;;;17.11;78.00
35023;BME280;21214;44.912;8.204;2023-03-21T12:12:45;99778.09;;;17.38;75.22
35023;BME280;21214;44.912;8.204;2023-03-21T12:22:55;99755.84;;;17.83;71.95
35023;BME280;21214;44.912;8.204;2023-03-21T12:25:28;99760.78;;;17.86;71.64
35023;BME280;21214;44.912;8.204;2023-03-21T12:30:44;99743.31;;;17.69;72.72
35023;BME280;21214;44.912;8.204;2023-03-21T12:38:27;99711.63;;;17.95;72.23
35023;BME280;21214;44.912;8.204;2023-03-21T12:41:04;99711.41;;;18.11;67.36
35023;BME280;21214;44.912;8.204;2023-03-21T12:46:00;99709.16;;;18.29;70.09
35023;BME280;21214;44.912;8.204;2023-03-21T12:48:43;99703.22;;;18.49;70.19
35023;BME280;21214;44.912;8.204;2023-03-21T12:51:13;99697.25;;;18.68;70.70
35023;BME280;21214;44.912;8.204;2023-03-21T12:56:12;99692.63;;;19.04;67.58
35023;BME280;21214;44.912;8.204;2023-03-21T12:58:45;99687.28;;;19.04;66.81
35023;BME280;21214;44.912;8.204;2023-03-21T13:01:12;99688.56;;;19.08;67.65
35023;BME280;21214;44.912;8.204;2023-03-21T13:03:40;99680.00;;;19.19;68.57
35023;BME280;21214;44.912;8.204;2023-03-21T13:06:13;99677.34;;;19.19;68.86
35023;BME280;21214;44.912;8.204;2023-03-21T13:11:11;99672.66;;;19.28;68.52
35023;BME280;21214;44.912;8.204;2023-03-21T13:13:49;99672.88;;;19.33;66.94
35023;BME280;21214;44.912;8.204;2023-03-21T13:16:21;99671.50;;;19.37;64.93
35023;BME280;21214;44.912;8.204;2023-03-21T13:21:38;99664.16;;;19.46;65.90
35023;BME280;21214;44.912;8.204;2023-03-21T13:26:55;99664.59;;;19.56;64.08
35023;BME280;21214;44.912;8.204;2023-03-21T13:29:23;99656.03;;;19.67;64.56
35023;BME280;21214;44.912;8.204;2023-03-21T13:31:50;99657.56;;;19.89;64.69
35023;BME280;21214;44.912;8.204;2023-03-21T13:34:17;99652.06;;;20.11;63.32
35023;BME280;21214;44.912;8.204;2023-03-21T13:36:45;99636.22;;;20.16;62.98
35023;BME280;21214;44.912;8.204;2023-03-21T13:39:16;99644.06;;;20.24;62.18
35023;BME280;21214;44.912;8.204;2023-03-21T13:41:42;99647.59;;;20.31;60.29
35023;BME280;21214;44.912;8.204;2023-03-21T13:46:59;99637.13;;;20.36;61.16
35023;BME280;21214;44.912;8.204;2023-03-21T13:49:26;99632.41;;;20.38;62.54
35023;BME280;21214;44.912;8.204;2023-03-21T13:51:53;99633.63;;;20.42;62.10
35023;BME280;21214;44.912;8.204;2023-03-21T13:54:43;99623.72;;;20.36;61.09
35023;BME280;21214;44.912;8.204;2023-03-21T13:57:05;99621.19;;;20.28;60.86
35023;BME280;21214;44.912;8.204;2023-03-21T13:59:35;99615.44;;;20.24;60.64
35023;BME280;21214;44.912;8.204;2023-03-21T14:02:33;99619.56;;;20.20;62.62
35023;BME280;21214;44.912;8.204;2023-03-21T14:04:56;99617.06;;;20.19;64.59
35023;BME280;21214;44.912;8.204;2023-03-21T14:07:24;99610.25;;;20.16;65.18
35023;BME280;21214;44.912;8.204;2023-03-21T14:09:54;99606.34;;;20.19;65.17
35023;BME280;21214;44.912;8.204;2023-03-21T14:12:22;99603.47;;;20.27;64.92
35023;BME280;21214;44.912;8.204;2023-03-21T14:14:49;99606.13;;;20.27;62.75
35023;BME280;21214;44.912;8.204;2023-03-21T14:17:22;99599.97;;;20.20;62.72
35023;BME280;21214;44.912;8.204;2023-03-21T14:19:51;99596.88;;;20.23;63.03
35023;BME280;21214;44.912;8.204;2023-03-21T14:22:17;99592.75;;;20.14;64.05
35023;BME280;21214;44.912;8.204;2023-03-21T14:27:20;99578.72;;;20.12;66.49
35023;BME280;21214;44.912;8.204;2023-03-21T14:29:45;99581.19;;;20.07;67.18
35023;BME280;21214;44.912;8.204;2023-03-21T14:32:21;99577.84;;;19.91;66.68
35023;BME280;21214;44.912;8.204;2023-03-21T14:34:47;99571.25;;;19.87;66.67
35023;BME280;21214;44.912;8.204;2023-03-21T14:37:24;99567.72;;;19.87;67.12
35023;BME280;21214;44.912;8.204;2023-03-21T14:39:55;99566.28;;;19.78;68.39